Time;durP1;ratioP1;P1;durP2;ratioP2;P2;SDS_P1;SDS_P2;PMS_P1;PMS_P2;Temp;Humidity;BMP_temperature;BMP_pressure;BME280_temperature;BME280_humidity;BME280_pressure;Samples;Min_cycle;Max_cycle;Signal;HPM_P1;HPM_P2
2023/01/02 00:02:10;;;;;;;;;;;;;;;;;;4648924;28;20320;-67
2023/01/02 00:04:36;;;;;;;;;;;;;;;;;;4655195;28;20239;-66
2023/01/02 00:07:02;;;;;;;;;;;;;;;;;;4655458;28;20299;-66
2023/01/02 00:09:28;;;;;;;;;;;;;;;;;;4651074;28;20254;-66
2023/01/02 00:11:54;;;;;;;;;;;;;;;;;;4650496;28;20277;-66
2023/01/02 00:14:20;;;;;;;;;;;;;;;;;;4649512;28;20378;-66
2023/01/02 00:16:46;;;;;;;;;;;;;;;;;;4650115;28;20270;-66
2023/01/02 00:19:12;;;;;;;;;;;;;;;;;;4650889;28;20411;-66
2023/01/02 00:21:37;;;;;;;;;;;;;;;;;;4650672;28;20343;-67
2023/01/02 00:24:03;;;;;;;;;;;;;;;;;;4649824;28;20288;-66
2023/01/02 00:26:29;;;;;;;;;;;;;;;;;;4650594;28;20251;-67
2023/01/02 00:28:55;;;;;;;;;;;;;;;;;;4650437;28;20331;-67
2023/01/02 00:31:21;;;;;;;;;;;;;;;;;;4650707;28;20774;-67
2023/01/02 00:33:47;;;;;;;;;;;;;;;;;;4649887;28;20304;-67
2023/01/02 00:36:13;;;;;;;;;;;;;;;;;;4649931;28;20743;-67
2023/01/02 00:38:39;;;;;;;;;;;;;;;;;;4650687;28;20283;-67
2023/01/02 00:41:04;;;;;;;;;;;;;;;;;;4649894;28;20295;-67
2023/01/02 00:43:30;;;;;;;;;;;;;;;;;;4649976;28;20419;-66
2023/01/02 00:45:56;;;;;;;;;;;;;;;;;;4648877;28;20276;-66
2023/01/02 00:48:22;;;;;;;;;;;;;;;;;;4649376;28;20304;-67
2023/01/02 00:50:48;;;;;;;;;;;;;;;;;;4650740;28;20237;-67
2023/01/02 00:53:14;;;;;;;;;;;;;;;;;;4650002;28;20327;-66
2023/01/02 00:55:40;;;;;;;;;;;;;;;;;;4652352;28;20278;-65
2023/01/02 00:58:06;;;;;;;;;;;;;;;;;;4651996;28;20242;-67
2023/01/02 01:00:31;;;;;;;;;;;;;;;;;;4652610;28;20280;-65
2023/01/02 01:02:57;;;;;;;;;;;;;;;;;;4652364;28;20292;-66
2023/01/02 01:05:23;;;;;;;;;;;;;;;;;;4652318;28;20275;-66
2023/01/02 01:07:49;;;;;;;;;;;;;;;;;;4650962;28;20393;-68
2023/01/02 01:10:15;;;;;;;;;;;;;;;;;;4651560;28;20252;-66
2023/01/02 01:12:41;;;;;;;;;;;;;;;;;;4651014;28;20316;-66
2023/01/02 01:15:07;;;;;;;;;;;;;;;;;;4652252;28;20875;-66
2023/01/02 01:17:33;;;;;;;;;;;;;;;;;;4654364;28;20359;-66
2023/01/02 01:19:59;;;;;;;;;;;;;;;;;;4653757;28;20293;-66
2023/01/02 01:22:24;;;;;;;;;;;;;;;;;;4653213;28;20344;-66
2023/01/02 01:24:50;;;;;;;;;;;;;;;;;;4652272;28;20233;-66
2023/01/02 01:27:16;;;;;;;;;;;;;;;;;;4650747;28;20269;-67
2023/01/02 01:29:42;;;;;;;;;;;;;;;;;;4650592;28;20383;-66
2023/01/02 01:32:08;;;;;;;;;;;;;;;;;;4649671;28;20240;-66
2023/01/02 01:34:34;;;;;;;;;;;;;;;;;;4649859;28;20313;-66
2023/01/02 01:37:00;;;;;;;;;;;;;;;;;;4650422;28;20354;-66
2023/01/02 01:39:26;;;;;;;;;;;;;;;;;;4649988;28;20330;-67
2023/01/02 01:41:52;;;;;;;;;;;;;;;;;;4649874;28;20253;-67
2023/01/02 01:44:17;;;;;;;;;;;;;;;;;;4649833;28;20689;-67
2023/01/02 01:46:43;;;;;;;;;;;;;;;;;;4649832;28;20271;-66
2023/01/02 01:49:09;;;;;;;;;;;;;;;;;;4649563;28;20787;-66
2023/01/02 01:51:35;;;;;;;;;;;;;;;;;;4649173;28;20274;-66
2023/01/02 01:54:01;;;;;;;;;;;;;;;;;;4649080;28;20257;-67
2023/01/02 01:56:27;;;;;;;;;;;;;;;;;;4650906;28;20333;-66
2023/01/02 01:58:53;;;;;;;;;;;;;;;;;;4652292;28;20391;-66
2023/01/02 02:01:19;;;;;;;;;;;;;;;;;;4650816;28;20271;-64
2023/01/02 02:03:45;;;;;;;;;;;;;;;;;;4650734;28;20304;-66
2023/01/02 02:06:11;;;;;;;;;;;;;;;;;;4645050;28;20299;-66
2023/01/02 02:08:37;;;;;;;;;;;;;;;;;;4650105;28;20383;-67
2023/01/02 02:11:03;;;;;;;;;;;;;;;;;;4650774;28;20270;-66
2023/01/02 02:13:29;;;;;;;;;;;;;;;;;;4650646;28;20319;-66
2023/01/02 02:15:55;;;;;;;;;;;;;;;;;;4650042;28;20283;-67
2023/01/02 02:18:20;;;;;;;;;;;;;;;;;;4650115;28;20294;-66
2023/01/02 02:20:46;;;;;;;;;;;;;;;;;;4650484;28;20343;-65
2023/01/02 02:23:12;;;;;;;;;;;;;;;;;;4649362;28;20850;-67
2023/01/02 02:25:38;;;;;;;;;;;;;;;;;;4648233;28;20936;-67
2023/01/02 02:28:04;;;;;;;;;;;;;;;;;;4649464;28;20774;-67
2023/01/02 02:30:30;;;;;;;;;;;;;;;;;;4649490;28;20262;-66
2023/01/02 02:32:56;;;;;;;;;;;;;;;;;;4649159;28;20307;-67
2023/01/02 02:35:22;;;;;;;;;;;;;;;;;;4649576;28;20355;-67
2023/01/02 02:37:48;;;;;;;;;;;;;;;;;;4648266;28;20278;-67
2023/01/02 02:40:13;;;;;;;;;;;;;;;;;;4647977;28;20251;-66
2023/01/02 02:42:39;;;;;;;;;;;;;;;;;;4648355;28;20325;-66
2023/01/02 02:45:05;;;;;;;;;;;;;;;;;;4649062;28;20276;-66
2023/01/02 02:47:31;;;;;;;;;;;;;;;;;;4663945;28;20299;-65
2023/01/02 02:49:57;;;;;;;;;;;;;;;;;;4648421;28;20734;-66
2023/01/02 02:52:23;;;;;;;;;;;;;;;;;;4647464;28;20341;-66
2023/01/02 02:54:49;;;;;;;;;;;;;;;;;;4647266;28;20383;-66
2023/01/02 02:57:15;;;;;;;;;;;;;;;;;;4647313;28;20406;-65
2023/01/02 02:59:41;;;;;;;;;;;;;;;;;;4648720;28;20293;-67
2023/01/02 03:02:07;;;;;;;;;;;;;;;;;;4648747;28;20278;-66
2023/01/02 03:04:33;;;;;;;;;;;;;;;;;;4648728;28;20308;-66
2023/01/02 03:06:58;;;;;;;;;;;;;;;;;;4648204;28;20358;-67
2023/01/02 03:09:24;;;;;;;;;;;;;;;;;;4646828;28;20298;-66
2023/01/02 03:11:50;;;;;;;;;;;;;;;;;;4647806;28;20304;-67
2023/01/02 03:14:16;;;;;;;;;;;;;;;;;;4651267;28;20248;-67
2023/01/02 03:16:42;;;;;;;;;;;;;;;;;;4650443;28;20370;-67
2023/01/02 03:19:08;;;;;;;;;;;;;;;;;;4650232;28;20873;-66
2023/01/02 03:21:34;;;;;;;;;;;;;;;;;;4650601;28;20244;-66
2023/01/02 03:24:00;;;;;;;;;;;;;;;;;;4650107;28;20303;-66
2023/01/02 03:26:26;;;;;;;;;;;;;;;;;;4649911;28;20275;-67
2023/01/02 03:28:52;;;;;;;;;;;;;;;;;;4649002;28;20234;-65
2023/01/02 03:31:17;;;;;;;;;;;;;;;;;;4649666;28;20243;-66
2023/01/02 03:33:43;;;;;;;;;;;;;;;;;;4663533;28;20317;-66
2023/01/02 03:36:09;;;;;;;;;;;;;;;;;;4653362;28;20350;-67
2023/01/02 03:38:35;;;;;;;;;;;;;;;;;;4653174;28;20244;-66
2023/01/02 03:41:01;;;;;;;;;;;;;;;;;;4652440;28;20860;-66
2023/01/02 03:43:28;;;;;;;;;;;;;;;;;;4652374;28;20278;-67
2023/01/02 03:45:54;;;;;;;;;;;;;;;;;;4651151;28;20426;-67
2023/01/02 03:48:20;;;;;;;;;;;;;;;;;;4650678;28;20334;-66
2023/01/02 03:50:46;;;;;;;;;;;;;;;;;;4650165;28;20330;-66
2023/01/02 03:53:12;;;;;;;;;;;;;;;;;;4649867;28;20427;-67
2023/01/02 03:55:38;;;;;;;;;;;;;;;;;;4650528;28;20266;-66
2023/01/02 03:58:04;;;;;;;;;;;;;;;;;;4652503;28;20243;-66
2023/01/02 04:00:30;;;;;;;;;;;;;;;;;;4652827;28;20253;-67
2023/01/02 04:02:55;;;;;;;;;;;;;;;;;;4653813;28;20400;-66
2023/01/02 04:05:21;;;;;;;;;;;;;;;;;;4652549;28;20287;-67
2023/01/02 04:07:47;;;;;;;;;;;;;;;;;;4653800;28;20271;-66
2023/01/02 04:10:13;;;;;;;;;;;;;;;;;;4654373;28;20940;-66
2023/01/02 04:12:39;;;;;;;;;;;;;;;;;;4648590;28;20310;-66
2023/01/02 04:15:05;;;;;;;;;;;;;;;;;;4654389;28;20868;-66
2023/01/02 04:17:31;;;;;;;;;;;;;;;;;;4654014;28;20295;-66
2023/01/02 04:19:57;;;;;;;;;;;;;;;;;;4654124;28;20308;-67
2023/01/02 04:22:22;;;;;;;;;;;;;;;;;;4652949;28;20240;-67
2023/01/02 04:24:48;;;;;;;;;;;;;;;;;;4650656;28;21095;-67
2023/01/02 04:27:14;;;;;;;;;;;;;;;;;;4651177;28;20347;-66
2023/01/02 04:29:40;;;;;;;;;;;;;;;;;;4650776;28;20303;-67
2023/01/02 04:32:06;;;;;;;;;;;;;;;;;;4651358;28;20249;-67
2023/01/02 04:34:32;;;;;;;;;;;;;;;;;;4650248;28;20295;-66
2023/01/02 04:36:58;;;;;;;;;;;;;;;;;;4650328;28;20737;-66
2023/01/02 04:39:24;;;;;;;;;;;;;;;;;;4649370;28;20246;-67
2023/01/02 04:41:49;;;;;;;;;;;;;;;;;;4649984;28;20692;-67
2023/01/02 04:44:15;;;;;;;;;;;;;;;;;;4651904;28;20240;-66
2023/01/02 04:46:41;;;;;;;;;;;;;;;;;;4651334;28;20257;-66
2023/01/02 04:49:07;;;;;;;;;;;;;;;;;;4650372;28;20696;-67
2023/01/02 04:51:33;;;;;;;;;;;;;;;;;;4651741;28;20294;-66
2023/01/02 04:53:59;;;;;;;;;;;;;;;;;;4652373;28;20311;-66
2023/01/02 04:56:25;;;;;;;;;;;;;;;;;;4652188;28;20250;-66
2023/01/02 04:58:51;;;;;;;;;;;;;;;;;;4652005;28;20378;-66
2023/01/02 05:01:17;;;;;;;;;;;;;;;;;;4652691;28;20305;-66
2023/01/02 05:03:42;;;;;;;;;;;;;;;;;;4651755;28;20296;-67
2023/01/02 05:06:08;;;;;;;;;;;;;;;;;;4649919;28;20287;-67
2023/01/02 05:08:34;;;;;;;;;;;;;;;;;;4649877;28;20427;-67
2023/01/02 05:11:00;;;;;;;;;;;;;;;;;;4650325;28;20290;-67
2023/01/02 05:13:26;;;;;;;;;;;;;;;;;;4650134;28;20323;-67
2023/01/02 05:15:52;;;;;;;;;;;;;;;;;;4651473;28;20277;-67
2023/01/02 05:18:18;;;;;;;;;;;;;;;;;;4651262;28;20293;-67
2023/01/02 05:20:44;;;;;;;;;;;;;;;;;;4651527;28;20280;-68
2023/01/02 05:25:54;;;;;;;;;;;;;;;;;;4650803;28;20847;-68
2023/01/02 05:28:20;;;;;;;;;;;;;;;;;;4650967;28;20298;-68
2023/01/02 05:30:48;;;;;;;;;;;;;;;;;;4651785;28;20242;-68
2023/01/02 05:33:14;;;;;;;;;;;;;;;;;;4650246;28;20790;-67
2023/01/02 05:35:40;;;;;;;;;;;;;;;;;;4650347;28;20296;-67
2023/01/02 05:38:05;;;;;;;;;;;;;;;;;;4649239;28;20286;-68
2023/01/02 05:40:31;;;;;;;;;;;;;;;;;;4643952;28;20331;-68
2023/01/02 05:42:57;;;;;;;;;;;;;;;;;;4651010;28;20307;-67
2023/01/02 05:45:23;;;;;;;;;;;;;;;;;;4650779;28;20776;-68
2023/01/02 05:47:49;;;;;;;;;;;;;;;;;;4651680;28;20250;-65
2023/01/02 05:50:15;;;;;;;;;;;;;;;;;;4651468;28;20311;-66
2023/01/02 05:52:41;;;;;;;;;;;;;;;;;;4650465;28;20243;-67
2023/01/02 05:55:07;;;;;;;;;;;;;;;;;;4648896;28;20338;-66
2023/01/02 05:57:34;;;;;;;;;;;;;;;;;;4649445;28;20228;-66
2023/01/02 05:59:59;;;;;;;;;;;;;;;;;;4661611;28;20318;-65
2023/01/02 06:02:25;;;;;;;;;;;;;;;;;;4648392;28;20305;-66
2023/01/02 06:04:51;;;;;;;;;;;;;;;;;;4649366;28;20289;-66
2023/01/02 06:07:17;;;;;;;;;;;;;;;;;;4648973;28;20299;-67
2023/01/02 06:09:43;;;;;;;;;;;;;;;;;;4650376;28;20286;-67
2023/01/02 06:12:09;;;;;;;;;;;;;;;;;;4649953;28;20305;-67
2023/01/02 06:14:35;;;;;;;;;;;;;;;;;;4648723;28;20867;-67
2023/01/02 06:17:01;;;;;;;;;;;;;;;;;;4647165;28;20314;-67
2023/01/02 06:19:26;;;;;;;;;;;;;;;;;;4646346;28;20911;-67
2023/01/02 06:21:52;;;;;;;;;;;;;;;;;;4647979;28;20249;-68
2023/01/02 06:24:18;;;;;;;;;;;;;;;;;;4649691;28;20289;-67
2023/01/02 06:26:44;;;;;;;;;;;;;;;;;;4651538;28;20324;-67
2023/01/02 06:29:10;;;;;;;;;;;;;;;;;;4651813;28;20236;-67
2023/01/02 06:31:36;;;;;;;;;;;;;;;;;;4650647;28;20396;-65
2023/01/02 06:34:02;;;;;;;;;;;;;;;;;;4650132;28;20294;-67
2023/01/02 06:36:28;;;;;;;;;;;;;;;;;;4650596;28;20293;-67
2023/01/02 06:38:54;;;;;;;;;;;;;;;;;;4651279;28;20740;-67
2023/01/02 06:41:20;;;;;;;;;;;;;;;;;;4651076;28;20245;-67
2023/01/02 06:43:46;;;;;;;;;;;;;;;;;;4643954;28;20281;-67
2023/01/02 06:46:12;;;;;;;;;;;;;;;;;;4651185;28;20245;-68
2023/01/02 06:48:38;;;;;;;;;;;;;;;;;;4649264;28;20789;-67
2023/01/02 06:51:04;;;;;;;;;;;;;;;;;;4649288;28;20285;-67
2023/01/02 06:53:30;;;;;;;;;;;;;;;;;;4649267;28;20361;-67
2023/01/02 06:55:56;;;;;;;;;;;;;;;;;;4650356;28;20246;-67
2023/01/02 06:58:22;;;;;;;;;;;;;;;;;;4651647;28;20227;-67
2023/01/02 07:00:48;;;;;;;;;;;;;;;;;;4649689;28;20298;-67
2023/01/02 07:03:14;;;;;;;;;;;;;;;;;;4649493;28;20295;-67
2023/01/02 07:05:39;;;;;;;;;;;;;;;;;;4649722;28;20272;-67
2023/01/02 07:08:05;;;;;;;;;;;;;;;;;;4650786;28;20291;-67
2023/01/02 07:10:31;;;;;;;;;;;;;;;;;;4650572;28;20710;-67
2023/01/02 07:12:57;;;;;;;;;;;;;;;;;;4653642;28;20246;-66
2023/01/02 07:15:23;;;;;;;;;;;;;;;;;;4652682;28;20887;-67
2023/01/02 07:17:49;;;;;;;;;;;;;;;;;;4654558;28;20425;-67
2023/01/02 07:20:15;;;;;;;;;;;;;;;;;;4653561;28;20645;-68
2023/01/02 07:22:41;;;;;;;;;;;;;;;;;;4667478;28;20741;-67
2023/01/02 07:25:06;;;;;;;;;;;;;;;;;;4653404;28;20270;-67
2023/01/02 07:27:32;;;;;;;;;;;;;;;;;;4653297;28;20746;-67
2023/01/02 07:29:58;;;;;;;;;;;;;;;;;;4653161;28;20299;-67
2023/01/02 07:32:24;;;;;;;;;;;;;;;;;;4653369;28;20242;-67
2023/01/02 07:34:50;;;;;;;;;;;;;;;;;;4653822;28;20703;-67
2023/01/02 07:37:16;;;;;;;;;;;;;;;;;;4654696;28;20300;-67
2023/01/02 07:39:42;;;;;;;;;;;;;;;;;;4654704;28;20236;-67
2023/01/02 07:42:08;;;;;;;;;;;;;;;;;;4652873;28;20287;-67
2023/01/02 07:44:34;;;;;;;;;;;;;;;;;;4652467;28;20658;-67
2023/01/02 07:46:59;;;;;;;;;;;;;;;;;;4652924;28;20253;-67
2023/01/02 07:49:25;;;;;;;;;;;;;;;;;;4652996;28;20280;-66
2023/01/02 07:51:51;;;;;;;;;;;;;;;;;;4653073;28;20298;-66
2023/01/02 07:54:17;;;;;;;;;;;;;;;;;;4651161;28;20296;-67
2023/01/02 07:56:43;;;;;;;;;;;;;;;;;;4655129;28;20293;-59
2023/01/02 07:59:09;;;;;;;;;;;;;;;;;;4648052;28;20246;-60
2023/01/02 08:01:35;;;;;;;;;;;;;;;;;;4651878;28;20231;-64
2023/01/02 08:04:01;;;;;;;;;;;;;;;;;;4657570;28;20285;-65
2023/01/02 08:06:26;;;;;;;;;;;;;;;;;;4656636;28;20257;-64
2023/01/02 08:08:52;;;;;;;;;;;;;;;;;;4656496;28;20291;-63
2023/01/02 08:11:18;;;;;;;;;;;;;;;;;;4655404;28;20313;-65
2023/01/02 08:13:44;;;;;;;;;;;;;;;;;;4653434;28;20253;-65
2023/01/02 08:16:10;;;;;;;;;;;;;;;;;;4653990;28;20274;-64
2023/01/02 08:18:36;;;;;;;;;;;;;;;;;;4653656;28;20341;-64
2023/01/02 08:21:02;;;;;;;;;;;;;;;;;;4654772;28;20308;-64
2023/01/02 08:23:28;;;;;;;;;;;;;;;;;;4656323;28;20422;-64
2023/01/02 08:25:54;;;;;;;;;;;;;;;;;;4656890;28;20761;-62
2023/01/02 08:28:19;;;;;;;;;;;;;;;;;;4655821;28;20241;-64
2023/01/02 08:30:45;;;;;;;;;;;;;;;;;;4657758;28;20704;-64
2023/01/02 08:33:11;;;;;;;;;;;;;;;;;;4657920;28;20298;-65
2023/01/02 08:35:37;;;;;;;;;;;;;;;;;;4648671;28;20676;-64
2023/01/02 08:38:03;;;;;;;;;;;;;;;;;;4653548;28;20691;-63
2023/01/02 08:40:29;;;;;;;;;;;;;;;;;;4654623;28;20280;-64
2023/01/02 08:42:55;;;;;;;;;;;;;;;;;;4656106;28;20657;-64
2023/01/02 08:45:21;;;;;;;;;;;;;;;;;;4656904;28;20306;-65
2023/01/02 08:47:47;;;;;;;;;;;;;;;;;;4655856;28;20298;-64
2023/01/02 08:50:13;;;;;;;;;;;;;;;;;;4656000;28;20767;-64
2023/01/02 08:52:38;;;;;;;;;;;;;;;;;;4656416;28;20817;-64
2023/01/02 08:55:04;;;;;;;;;;;;;;;;;;4653759;28;20407;-64
2023/01/02 08:57:30;;;;;;;;;;;;;;;;;;4668506;28;20278;-64
2023/01/02 08:59:56;;;;;;;;;;;;;;;;;;4655999;28;20239;-64
2023/01/02 09:02:22;;;;;;;;;;;;;;;;;;4656541;28;20343;-64
2023/01/02 09:04:48;;;;;;;;;;;;;;;;;;4656105;28;20298;-64
2023/01/02 09:07:14;;;;;;;;;;;;;;;;;;4655478;28;20279;-62
2023/01/02 09:09:40;;;;;;;;;;;;;;;;;;4655359;28;20795;-63
2023/01/02 09:12:05;;;;;;;;;;;;;;;;;;4654140;28;20290;-63
2023/01/02 09:14:31;;;;;;;;;;;;;;;;;;4653790;28;20390;-63
2023/01/02 09:16:58;;;;;;;;;;;;;;;;;;4651509;28;20277;-62
2023/01/02 09:19:24;;;;;;;;;;;;;;;;;;4652159;28;20262;-63
2023/01/02 09:21:49;;;;;;;;;;;;;;;;;;4652459;28;20617;-63
2023/01/02 09:24:15;;;;;;;;;;;;;;;;;;4651801;28;20267;-64
2023/01/02 09:26:41;;;;;;;;;;;;;;;;;;4649841;28;20421;-62
2023/01/02 09:29:07;;;;;;;;;;;;;;;;;;4653484;28;20302;-64
2023/01/02 09:31:33;;;;;;;;;;;;;;;;;;4654191;28;20345;-64
2023/01/02 09:33:59;;;;;;;;;;;;;;;;;;4652035;28;20794;-64
2023/01/02 09:36:25;;;;;;;;;;;;;;;;;;4653257;28;20336;-65
2023/01/02 09:38:51;;;;;;;;;;;;;;;;;;4653440;28;20325;-61
2023/01/02 09:41:17;;;;;;;;;;;;;;;;;;4653579;28;20337;-64
2023/01/02 09:43:43;;;;;;;;;;;;;;;;;;4651465;28;20680;-64
2023/01/02 09:46:09;;;;;;;;;;;;;;;;;;4651207;28;20247;-64
2023/01/02 09:48:35;;;;;;;;;;;;;;;;;;4653283;28;20810;-63
2023/01/02 09:51:00;;;;;;;;;;;;;;;;;;4651176;28;20237;-64
2023/01/02 09:53:26;;;;;;;;;;;;;;;;;;4651509;28;20401;-65
2023/01/02 09:55:56;;;;;;;;;;;;;;;;;;4651336;28;20326;-65
2023/01/02 09:58:22;;;;;;;;;;;;;;;;;;4653034;28;20374;-65
2023/01/02 10:00:48;;;;;;;;;;;;;;;;;;4650606;28;20274;-63
2023/01/02 10:03:14;;;;;;;;;;;;;;;;;;4648255;28;20286;-62
2023/01/02 10:05:40;;;;;;;;;;;;;;;;;;4647398;28;20262;-64
2023/01/02 10:08:06;;;;;;;;;;;;;;;;;;4662743;28;21145;-63
2023/01/02 10:10:33;;;;;;;;;;;;;;;;;;4651803;28;20803;-64
2023/01/02 10:12:59;;;;;;;;;;;;;;;;;;4653543;28;20303;-65
2023/01/02 10:15:24;;;;;;;;;;;;;;;;;;4655526;28;20397;-65
2023/01/02 10:17:50;;;;;;;;;;;;;;;;;;4655715;28;20784;-64
2023/01/02 10:20:17;;;;;;;;;;;;;;;;;;4655759;28;20715;-64
2023/01/02 10:22:43;;;;;;;;;;;;;;;;;;4653354;28;20691;-64
2023/01/02 10:25:09;;;;;;;;;;;;;;;;;;4655714;28;20287;-64
2023/01/02 10:27:35;;;;;;;;;;;;;;;;;;4656020;28;20245;-64
2023/01/02 10:30:00;;;;;;;;;;;;;;;;;;4655820;28;20313;-63
2023/01/02 10:32:27;;;;;;;;;;;;;;;;;;4654459;28;20273;-63
2023/01/02 10:34:53;;;;;;;;;;;;;;;;;;4656110;28;20845;-64
2023/01/02 10:37:19;;;;;;;;;;;;;;;;;;4657951;28;20718;-63
2023/01/02 10:39:45;;;;;;;;;;;;;;;;;;4657571;28;20318;-65
2023/01/02 10:42:11;;;;;;;;;;;;;;;;;;4655315;28;20238;-64
2023/01/02 10:44:37;;;;;;;;;;;;;;;;;;4655857;28;21068;-64
2023/01/02 10:47:03;;;;;;;;;;;;;;;;;;4655151;28;20305;-65
2023/01/02 10:49:29;;;;;;;;;;;;;;;;;;4655546;28;20266;-63
2023/01/02 10:51:55;;;;;;;;;;;;;;;;;;4653799;28;20690;-64
2023/01/02 10:54:20;;;;;;;;;;;;;;;;;;4654356;28;20249;-64
2023/01/02 10:56:46;;;;;;;;;;;;;;;;;;4654924;28;20813;-64
2023/01/02 10:59:12;;;;;;;;;;;;;;;;;;4653648;28;20852;-64
2023/01/02 11:01:38;;;;;;;;;;;;;;;;;;4651036;28;20343;-64
2023/01/02 11:04:04;;;;;;;;;;;;;;;;;;4650965;28;20903;-64
2023/01/02 11:06:30;;;;;;;;;;;;;;;;;;4652074;28;20245;-64
2023/01/02 11:08:56;;;;;;;;;;;;;;;;;;4652931;28;20880;-63
2023/01/02 11:11:22;;;;;;;;;;;;;;;;;;4651962;28;20309;-62
2023/01/02 11:13:50;;;;;;;;;;;;;;;;;;4650988;28;20709;-64
2023/01/02 11:16:16;;;;;;;;;;;;;;;;;;4650330;28;20782;-63
2023/01/02 11:18:44;;;;;;;;;;;;;;;;;;4649689;28;20242;-63
2023/01/02 11:21:09;;;;;;;;;;;;;;;;;;4647336;28;20295;-65
2023/01/02 11:23:35;;;;;;;;;;;;;;;;;;4646902;28;20247;-64
2023/01/02 11:26:01;;;;;;;;;;;;;;;;;;4646936;28;20701;-64
2023/01/02 11:28:27;;;;;;;;;;;;;;;;;;4640269;28;20310;-64
2023/01/02 11:30:53;;;;;;;;;;;;;;;;;;4642846;28;20236;-62
2023/01/02 11:33:19;;;;;;;;;;;;;;;;;;4649943;28;20287;-63
2023/01/02 11:35:45;;;;;;;;;;;;;;;;;;4651381;28;20759;-63
2023/01/02 11:38:11;;;;;;;;;;;;;;;;;;4652166;28;20249;-64
2023/01/02 11:40:37;;;;;;;;;;;;;;;;;;4648642;28;20298;-62
2023/01/02 11:45:48;;;;;;;;;;;;;;;;;;4649727;28;20796;-64
2023/01/02 11:48:13;;;;;;;;;;;;;;;;;;4650954;28;20283;-64
2023/01/02 11:50:39;;;;;;;;;;;;;;;;;;4650449;28;20340;-64
2023/01/02 11:53:05;;;;;;;;;;;;;;;;;;4650181;28;20347;-63
2023/01/02 11:55:32;;;;;;;;;;;;;;;;;;4654019;28;20243;-64
2023/01/02 11:57:58;;;;;;;;;;;;;;;;;;4655391;28;20288;-64
2023/01/02 12:00:24;;;;;;;;;;;;;;;;;;4656528;28;20271;-63
2023/01/02 12:02:50;;;;;;;;;;;;;;;;;;4655731;28;20246;-64
2023/01/02 12:05:16;;;;;;;;;;;;;;;;;;4668927;28;20303;-63
2023/01/02 12:07:42;;;;;;;;;;;;;;;;;;4655849;28;20914;-61
2023/01/02 12:10:08;;;;;;;;;;;;;;;;;;4656103;28;20313;-64
2023/01/02 12:12:33;;;;;;;;;;;;;;;;;;4654516;28;20248;-64
2023/01/02 12:14:59;;;;;;;;;;;;;;;;;;4653605;28;21158;-62
2023/01/02 12:17:25;;;;;;;;;;;;;;;;;;4654355;28;20318;-64
2023/01/02 12:19:51;;;;;;;;;;;;;;;;;;4654629;28;21197;-65
2023/01/02 12:22:17;;;;;;;;;;;;;;;;;;4664959;28;20289;-64
2023/01/02 12:24:43;;;;;;;;;;;;;;;;;;4650582;28;20268;-63
2023/01/02 12:27:09;;;;;;;;;;;;;;;;;;4650851;28;20314;-64
2023/01/02 12:29:35;;;;;;;;;;;;;;;;;;4649579;28;20238;-64
2023/01/02 12:32:00;;;;;;;;;;;;;;;;;;4654254;28;20300;-64
2023/01/02 12:34:26;;;;;;;;;;;;;;;;;;4651427;28;20804;-63
2023/01/02 12:36:52;;;;;;;;;;;;;;;;;;4650570;28;20445;-63
2023/01/02 12:39:18;;;;;;;;;;;;;;;;;;4651406;28;20238;-63
2023/01/02 12:41:44;;;;;;;;;;;;;;;;;;4653152;28;20770;-64
2023/01/02 12:44:10;;;;;;;;;;;;;;;;;;4652734;28;20815;-63
2023/01/02 12:46:36;;;;;;;;;;;;;;;;;;4652895;28;20286;-64
2023/01/02 12:49:02;;;;;;;;;;;;;;;;;;4653759;28;20379;-64
2023/01/02 12:51:28;;;;;;;;;;;;;;;;;;4646039;28;20277;-64
2023/01/02 12:53:54;;;;;;;;;;;;;;;;;;4649313;28;20739;-64
2023/01/02 12:56:19;;;;;;;;;;;;;;;;;;4651682;28;20269;-63
2023/01/02 12:58:45;;;;;;;;;;;;;;;;;;4650744;28;20251;-64
2023/01/02 13:01:11;;;;;;;;;;;;;;;;;;4654734;28;20304;-63
2023/01/02 13:03:37;;;;;;;;;;;;;;;;;;4651438;28;20334;-64
2023/01/02 13:06:03;;;;;;;;;;;;;;;;;;4651860;28;20312;-62
2023/01/02 13:08:29;;;;;;;;;;;;;;;;;;4647895;28;20321;-64
2023/01/02 13:10:55;;;;;;;;;;;;;;;;;;4651319;28;20796;-65
2023/01/02 13:13:21;;;;;;;;;;;;;;;;;;4650099;28;20249;-63
2023/01/02 13:15:46;;;;;;;;;;;;;;;;;;4648847;28;20287;-65
2023/01/02 13:18:12;;;;;;;;;;;;;;;;;;4649267;28;20285;-63
2023/01/02 13:20:38;;;;;;;;;;;;;;;;;;4650492;28;20715;-64
2023/01/02 13:23:04;;;;;;;;;;;;;;;;;;4653454;28;20230;-63
2023/01/02 13:25:30;;;;;;;;;;;;;;;;;;4649712;28;20236;-63
2023/01/02 13:27:57;;;;;;;;;;;;;;;;;;4666366;28;20782;-64
2023/01/02 13:30:23;;;;;;;;;;;;;;;;;;4651949;28;20839;-64
2023/01/02 13:32:48;;;;;;;;;;;;;;;;;;4652222;28;20263;-62
2023/01/02 13:35:14;;;;;;;;;;;;;;;;;;4651177;28;20335;-65
2023/01/02 13:37:40;;;;;;;;;;;;;;;;;;4650875;28;20251;-63
2023/01/02 13:40:06;;;;;;;;;;;;;;;;;;4650648;28;20373;-65
2023/01/02 13:45:17;;;;;;;;;;;;;;;;;;4647428;28;20735;-64
2023/01/02 13:47:46;;;;;;;;;;;;;;;;;;4644584;28;20294;-64
2023/01/02 13:50:12;;;;;;;;;;;;;;;;;;4646055;28;20638;-64
2023/01/02 13:52:38;;;;;;;;;;;;;;;;;;4643743;28;20288;-64
2023/01/02 13:55:04;;;;;;;;;;;;;;;;;;4645140;28;20261;-65
2023/01/02 13:57:30;;;;;;;;;;;;;;;;;;4645532;28;20311;-64
2023/01/02 13:59:56;;;;;;;;;;;;;;;;;;4644017;28;20281;-66
2023/01/02 14:02:22;;;;;;;;;;;;;;;;;;4647135;28;20348;-65
2023/01/02 14:04:48;;;;;;;;;;;;;;;;;;4642884;28;20276;-64
2023/01/02 14:07:14;;;;;;;;;;;;;;;;;;4646787;28;20304;-64
2023/01/02 14:09:40;;;;;;;;;;;;;;;;;;4645892;28;20259;-63
2023/01/02 14:12:05;;;;;;;;;;;;;;;;;;4645014;28;20313;-65
2023/01/02 14:14:32;;;;;;;;;;;;;;;;;;4646363;28;20328;-65
2023/01/02 14:16:58;;;;;;;;;;;;;;;;;;4645494;28;20730;-61
2023/01/02 14:19:24;;;;;;;;;;;;;;;;;;4648747;28;20247;-63
2023/01/02 14:21:49;;;;;;;;;;;;;;;;;;4652735;28;20394;-66
2023/01/02 14:24:15;;;;;;;;;;;;;;;;;;4652109;28;20832;-63
2023/01/02 14:26:41;;;;;;;;;;;;;;;;;;4651538;28;20281;-65
2023/01/02 14:29:07;;;;;;;;;;;;;;;;;;4648790;28;20249;-63
2023/01/02 14:31:33;;;;;;;;;;;;;;;;;;4649446;28;20231;-65
2023/01/02 14:33:59;;;;;;;;;;;;;;;;;;4651721;28;20347;-64
2023/01/02 14:36:25;;;;;;;;;;;;;;;;;;4650320;28;20299;-65
2023/01/02 14:38:51;;;;;;;;;;;;;;;;;;4645121;28;20691;-65
2023/01/02 14:44:01;;;;;;;;;;;;;;;;;;4644942;28;20365;-64
2023/01/02 14:46:27;;;;;;;;;;;;;;;;;;4646897;28;20236;-64
2023/01/02 14:48:53;;;;;;;;;;;;;;;;;;4646863;28;20394;-64
2023/01/02 14:51:19;;;;;;;;;;;;;;;;;;4649375;28;20342;-63
2023/01/02 14:53:45;;;;;;;;;;;;;;;;;;4647604;28;20357;-64
2023/01/02 14:56:11;;;;;;;;;;;;;;;;;;4648437;28;20297;-63
2023/01/02 14:58:36;;;;;;;;;;;;;;;;;;4648136;28;20753;-65
2023/01/02 15:01:02;;;;;;;;;;;;;;;;;;4645499;28;20274;-64
2023/01/02 15:03:28;;;;;;;;;;;;;;;;;;4646688;28;20326;-64
2023/01/02 15:05:54;;;;;;;;;;;;;;;;;;4651983;28;20308;-64
2023/01/02 15:08:20;;;;;;;;;;;;;;;;;;4651065;28;20283;-64
2023/01/02 15:10:46;;;;;;;;;;;;;;;;;;4648290;28;20351;-65
2023/01/02 15:13:12;;;;;;;;;;;;;;;;;;4644385;28;20242;-64
2023/01/02 15:15:38;;;;;;;;;;;;;;;;;;4644252;28;20294;-64
2023/01/02 15:18:04;;;;;;;;;;;;;;;;;;4644856;28;20430;-63
2023/01/02 15:20:30;;;;;;;;;;;;;;;;;;4642986;28;20347;-65
2023/01/02 15:22:58;;;;;;;;;;;;;;;;;;4642039;28;20719;-64
2023/01/02 15:25:24;;;;;;;;;;;;;;;;;;4644207;28;20397;-64
2023/01/02 15:27:50;;;;;;;;;;;;;;;;;;4644444;28;20284;-65
2023/01/02 15:30:16;;;;;;;;;;;;;;;;;;4647572;28;20263;-65
2023/01/02 15:32:42;;;;;;;;;;;;;;;;;;4647955;28;20252;-65
2023/01/02 15:35:08;;;;;;;;;;;;;;;;;;4650187;28;20389;-64
2023/01/02 15:37:33;;;;;;;;;;;;;;;;;;4652408;28;20320;-65
2023/01/02 15:39:59;;;;;;;;;;;;;;;;;;4650217;28;20249;-65
2023/01/02 15:45:10;;;;;;;;;;;;;;;;;;4654531;28;20295;-65
2023/01/02 15:47:36;;;;;;;;;;;;;;;;;;4654910;28;20248;-65
2023/01/02 15:50:02;;;;;;;;;;;;;;;;;;4653233;28;20702;-64
2023/01/02 15:52:28;;;;;;;;;;;;;;;;;;4654254;28;20336;-65
2023/01/02 15:54:53;;;;;;;;;;;;;;;;;;4654580;28;20325;-64
2023/01/02 15:57:19;;;;;;;;;;;;;;;;;;4655632;28;20303;-63
2023/01/02 15:59:45;;;;;;;;;;;;;;;;;;4655923;28;20302;-64
2023/01/02 16:02:11;;;;;;;;;;;;;;;;;;4654053;28;20318;-65
2023/01/02 16:04:37;;;;;;;;;;;;;;;;;;4657471;28;20294;-63
2023/01/02 16:07:03;;;;;;;;;;;;;;;;;;4849511;23;20290;-64
2023/01/02 16:09:30;;;;;;;;;;;;;;;;;;4689422;28;20783;-63
2023/01/02 16:11:56;;;;;;;;;;;;;;;;;;4691184;28;20242;-65
2023/01/02 16:14:22;;;;;;;;;;;;;;;;;;4693983;28;20680;-65
2023/01/02 16:16:48;;;;;;;;;;;;;;;;;;4693340;28;20270;-65
2023/01/02 16:19:14;;;;;;;;;;;;;;;;;;4692725;28;20277;-63
2023/01/02 16:21:40;;;;;;;;;;;;;;;;;;4692959;28;20347;-66
2023/01/02 16:24:06;;;;;;;;;;;;;;;;;;4711731;28;20311;-63
2023/01/02 16:26:32;;;;;;;;;;;;;;;;;;4688714;28;20781;-65
2023/01/02 16:28:58;;;;;;;;;;;;;;;;;;4685948;28;20241;-64
2023/01/02 16:31:24;;;;;;;;;;;;;;;;;;4684761;28;20621;-65
2023/01/02 16:33:49;;;;;;;;;;;;;;;;;;4682388;28;20305;-65
2023/01/02 16:36:15;;;;;;;;;;;;;;;;;;4682631;28;20406;-66
2023/01/02 16:38:41;;;;;;;;;;;;;;;;;;4682704;28;20762;-66
2023/01/02 16:41:11;;;;;;;;;;;;;;;;;;4682265;28;20323;-67
2023/01/02 16:43:37;;;;;;;;;;;;;;;;;;4685838;28;20271;-66
2023/01/02 16:46:03;;;;;;;;;;;;;;;;;;4688330;28;20299;-65
2023/01/02 16:48:29;;;;;;;;;;;;;;;;;;4691976;28;20693;-65
2023/01/02 16:50:55;;;;;;;;;;;;;;;;;;4691848;28;20243;-65